createdAt,value
2022-08-17T00:00:42.640Z,19.90
2022-08-17T00:03:41.210Z,19.90
2022-08-17T00:06:20.858Z,19.90
2022-08-17T00:08:56.272Z,19.90
2022-08-17T00:11:30.339Z,20.30
2022-08-17T00:14:10.049Z,19.70
2022-08-17T00:16:50.993Z,20.00
2022-08-17T00:19:26.684Z,19.80
2022-08-17T00:22:34.207Z,19.80
2022-08-17T00:52:29.644Z,19.10
2022-08-17T00:54:57.640Z,19.20
2022-08-17T00:57:33.573Z,19.10
2022-08-17T01:00:15.117Z,19.00
2022-08-17T01:02:45.781Z,18.90
2022-08-17T01:05:26.772Z,18.90
2022-08-17T01:07:57.311Z,18.80
2022-08-17T01:10:58.417Z,18.80
2022-08-17T01:13:41.050Z,18.60
2022-08-17T01:16:19.560Z,18.90
2022-08-17T01:19:06.310Z,19.00
2022-08-17T01:22:11.281Z,18.70
2022-08-17T01:24:45.222Z,18.80
2022-08-17T01:29:48.577Z,18.90
2022-08-17T01:37:21.662Z,18.70
2022-08-17T01:42:43.639Z,18.80
2022-08-17T01:45:47.308Z,18.80
2022-08-17T01:48:16.402Z,18.80
2022-08-17T01:50:46.756Z,18.70
2022-08-17T01:53:22.386Z,18.70
2022-08-17T01:56:00.292Z,19.30
2022-08-17T02:03:30.780Z,18.60
2022-08-17T02:11:14.665Z,18.40
2022-08-17T02:13:48.939Z,18.40
2022-08-17T02:23:50.808Z,18.40
2022-08-17T02:36:34.406Z,18.30
2022-08-17T02:39:06.398Z,18.20
2022-08-17T02:51:30.770Z,18.10
2022-08-17T02:56:46.985Z,18.60
2022-08-17T03:04:11.301Z,18.20
2022-08-17T03:11:35.551Z,18.10
2022-08-17T03:31:25.798Z,18.50
2022-08-17T03:38:50.203Z,18.60
2022-08-17T03:49:26.998Z,18.40
2022-08-17T03:52:15.759Z,18.40
2022-08-17T03:55:03.591Z,18.30
2022-08-17T04:02:33.984Z,18.10
2022-08-17T04:07:32.037Z,19.00
2022-08-17T04:12:31.062Z,18.50
2022-08-17T04:14:59.494Z,18.70
2022-08-17T04:17:29.029Z,18.60
2022-08-17T04:22:31.730Z,18.70
2022-08-17T04:25:09.709Z,18.80
2022-08-17T04:30:09.811Z,19.10
2022-08-17T04:33:09.326Z,18.70
2022-08-17T04:35:46.606Z,19.50
2022-08-17T04:38:21.952Z,18.90
2022-08-17T04:43:40.053Z,19.00
2022-08-17T04:46:17.610Z,18.90
2022-08-17T04:48:51.155Z,19.00
2022-08-17T04:51:54.462Z,18.70
2022-08-17T04:59:22.622Z,19.10
2022-08-17T05:01:52.250Z,19.00
2022-08-17T05:04:34.036Z,19.00
2022-08-17T05:07:04.699Z,19.00
2022-08-17T05:12:02.545Z,19.00
2022-08-17T05:14:33.606Z,19.50
2022-08-17T05:42:28.410Z,19.00
2022-08-17T05:44:58.689Z,19.80
2022-08-17T05:53:08.417Z,19.60
2022-08-17T05:55:54.245Z,19.90
2022-08-17T05:58:52.199Z,19.70
2022-08-17T06:02:00.213Z,19.60
2022-08-17T06:04:58.124Z,19.60
2022-08-17T06:07:37.831Z,20.00
2022-08-17T06:10:18.407Z,19.70
2022-08-17T06:13:05.077Z,20.20
2022-08-17T06:15:45.023Z,19.60
2022-08-17T06:21:02.240Z,19.60
2022-08-17T06:23:44.538Z,19.70
2022-08-17T06:26:27.482Z,19.70
2022-08-17T06:29:08.879Z,19.80
2022-08-17T06:37:03.845Z,19.70
2022-08-17T06:40:08.950Z,20.00
2022-08-17T06:43:02.928Z,19.80
2022-08-17T06:45:49.380Z,19.50
2022-08-17T06:48:44.722Z,19.80
2022-08-17T06:51:24.586Z,19.30
2022-08-17T06:54:05.497Z,19.70
2022-08-17T06:57:01.599Z,19.60
2022-08-17T06:59:56.120Z,19.80
2022-08-17T07:02:52.658Z,19.70
2022-08-17T07:05:56.081Z,19.90
2022-08-17T07:09:02.331Z,19.80
2022-08-17T07:11:59.316Z,19.90
2022-08-17T07:14:54.820Z,19.80
2022-08-17T07:17:46.479Z,19.90
2022-08-17T07:23:08.727Z,19.70
2022-08-17T07:28:07.897Z,20.20
2022-08-17T07:30:47.075Z,19.90
2022-08-17T07:33:27.982Z,19.80
2022-08-17T07:35:58.194Z,20.00
2022-08-17T07:38:34.502Z,20.00
2022-08-17T07:41:07.558Z,20.10
2022-08-17T07:43:41.555Z,20.30
2022-08-17T07:46:52.199Z,20.20
2022-08-17T07:49:37.785Z,19.50
2022-08-17T07:52:51.274Z,19.80
2022-08-17T07:55:35.011Z,19.90
2022-08-17T08:03:31.979Z,19.90
2022-08-17T08:06:03.072Z,19.80
2022-08-17T08:08:38.849Z,19.80
2022-08-17T08:11:15.548Z,20.00
2022-08-17T08:13:45.854Z,19.90
2022-08-17T08:16:27.654Z,19.50
2022-08-17T08:19:01.747Z,20.10
2022-08-17T08:24:55.970Z,20.20
2022-08-17T08:27:44.782Z,20.40
2022-08-17T08:30:21.419Z,20.70
2022-08-17T08:33:20.769Z,20.80
2022-08-17T08:36:00.144Z,20.20
2022-08-17T08:38:48.504Z,21.00
2022-08-17T08:41:39.035Z,21.10
2022-08-17T08:50:37.018Z,21.00
2022-08-17T08:53:43.344Z,21.80
2022-08-17T08:57:19.271Z,21.60
2022-08-17T08:59:45.647Z,21.30
2022-08-17T09:02:59.977Z,21.90
2022-08-17T09:08:39.618Z,22.00
2022-08-17T09:11:31.204Z,22.10
2022-08-17T09:14:21.736Z,22.20
2022-08-17T09:17:25.631Z,21.80
2022-08-17T09:20:06.972Z,22.20
2022-08-17T09:22:43.905Z,22.30
2022-08-17T09:25:19.102Z,22.40
2022-08-17T09:28:16.374Z,22.60
2022-08-17T09:30:52.047Z,22.60
2022-08-17T09:33:26.309Z,22.70
2022-08-17T09:36:21.772Z,22.90
2022-08-17T09:39:13.910Z,23.60
2022-08-17T09:41:59.011Z,22.50
2022-08-17T09:47:25.501Z,22.80
2022-08-17T09:50:01.650Z,22.70
2022-08-17T09:52:31.869Z,22.50
2022-08-17T09:55:01.929Z,22.20
2022-08-17T10:00:25.742Z,22.60
2022-08-17T10:03:16.414Z,22.60
2022-08-17T10:06:21.625Z,22.50
2022-08-17T10:09:08.828Z,22.60
2022-08-17T10:12:03.836Z,22.20
2022-08-17T10:15:09.705Z,22.60
2022-08-17T10:18:21.566Z,23.00
2022-08-17T10:21:27.403Z,22.70
2022-08-17T10:24:39.104Z,22.90
2022-08-17T10:27:13.696Z,23.00
2022-08-17T10:32:32.461Z,23.20
2022-08-17T10:35:25.669Z,23.00
2022-08-17T10:38:28.818Z,23.50
2022-08-17T10:41:29.535Z,23.20
2022-08-17T10:44:39.246Z,24.50
2022-08-17T10:47:15.611Z,23.80
2022-08-17T10:49:54.016Z,24.10
2022-08-17T10:52:30.485Z,24.20
2022-08-17T10:57:39.044Z,24.40
2022-08-17T11:02:57.861Z,24.30
2022-08-17T11:05:28.996Z,24.60
2022-08-17T11:08:15.854Z,24.50
2022-08-17T11:11:12.973Z,24.40
2022-08-17T11:14:04.564Z,25.50
2022-08-17T11:16:59.498Z,25.20
2022-08-17T11:20:01.290Z,25.20
2022-08-17T11:22:47.031Z,25.20
2022-08-17T11:25:22.681Z,25.80
2022-08-17T11:28:21.017Z,25.00
2022-08-17T11:30:55.441Z,24.90
2022-08-17T11:33:29.410Z,24.90
2022-08-17T11:36:45.696Z,25.10
2022-08-17T11:39:28.932Z,24.70
2022-08-17T11:42:28.752Z,24.60
2022-08-17T11:45:32.442Z,24.60
2022-08-17T11:48:53.989Z,24.80
2022-08-17T11:51:34.144Z,25.50
2022-08-17T11:59:33.996Z,24.90
2022-08-17T12:02:32.390Z,24.80
2022-08-17T12:05:12.455Z,24.70
2022-08-17T12:08:15.360Z,24.40
2022-08-17T12:11:06.802Z,24.50
2022-08-17T12:13:57.806Z,24.60
2022-08-17T12:19:02.438Z,24.90
2022-08-17T12:21:54.968Z,24.70
2022-08-17T12:27:12.177Z,24.90
2022-08-17T12:29:45.247Z,24.80
2022-08-17T12:32:20.070Z,25.00
2022-08-17T12:34:51.175Z,25.00
2022-08-17T12:37:24.948Z,25.20
2022-08-17T12:40:18.822Z,25.30
2022-08-17T12:43:21.987Z,25.30
2022-08-17T12:46:13.172Z,25.80
2022-08-17T12:51:29.108Z,25.50
2022-08-17T13:01:26.227Z,26.70
2022-08-17T13:03:59.695Z,27.10
2022-08-17T13:06:35.682Z,27.80
2022-08-17T13:09:40.081Z,27.30
2022-08-17T13:17:09.902Z,28.10
2022-08-17T13:19:50.163Z,27.80
2022-08-17T13:22:24.248Z,29.00
2022-08-17T13:24:57.392Z,27.50
2022-08-17T13:27:28.477Z,28.60
2022-08-17T13:30:01.783Z,28.40
2022-08-17T13:32:43.653Z,29.20
2022-08-17T13:35:45.943Z,29.20
2022-08-17T13:38:45.632Z,29.80
2022-08-17T13:41:34.852Z,30.20
2022-08-17T13:44:36.833Z,30.20
2022-08-17T13:47:16.847Z,30.60
2022-08-17T13:52:43.776Z,30.80
2022-08-17T13:55:21.918Z,30.10
2022-08-17T13:58:04.184Z,30.70
2022-08-17T14:00:36.812Z,31.60
2022-08-17T14:03:05.792Z,31.00
2022-08-17T14:05:38.095Z,31.00
2022-08-17T14:08:07.219Z,31.10
2022-08-17T14:10:36.788Z,31.20
2022-08-17T14:13:06.930Z,31.60
2022-08-17T14:18:34.308Z,32.30
2022-08-17T14:21:11.442Z,32.20
2022-08-17T14:23:39.829Z,32.60
2022-08-17T14:28:38.739Z,33.20
2022-08-17T14:33:50.457Z,32.50
2022-08-17T14:36:18.375Z,33.70
2022-08-17T14:43:53.466Z,32.80
2022-08-17T14:46:21.433Z,33.80
2022-08-17T14:56:26.393Z,34.00
2022-08-17T15:01:24.691Z,31.90
2022-08-17T15:06:22.727Z,31.20
2022-08-17T15:08:51.287Z,31.60
2022-08-17T15:11:19.181Z,32.20
2022-08-17T15:16:20.994Z,31.80
2022-08-17T15:21:18.309Z,31.50
2022-08-17T15:23:46.668Z,31.70
2022-08-17T15:36:14.586Z,32.40
2022-08-17T15:41:17.904Z,32.30
2022-08-17T15:43:49.971Z,31.40
2022-08-17T15:46:25.481Z,30.90
2022-08-17T15:48:58.946Z,31.70
2022-08-17T15:51:33.757Z,32.00
2022-08-17T15:54:18.951Z,31.10
2022-08-17T16:03:01.286Z,31.10
2022-08-17T16:04:38.008Z,31.70
2022-08-17T16:07:11.180Z,32.40
2022-08-17T16:12:20.483Z,30.90
2022-08-17T16:14:50.186Z,30.80
2022-08-17T16:17:38.899Z,31.80
2022-08-17T16:20:06.750Z,30.50
2022-08-17T16:22:39.331Z,31.00
2022-08-17T16:25:16.625Z,30.50
2022-08-17T16:27:45.336Z,30.30
2022-08-17T16:30:17.760Z,30.80
2022-08-17T16:32:48.034Z,30.30
2022-08-17T16:37:45.833Z,30.20
2022-08-17T16:40:16.202Z,30.30
2022-08-17T16:42:48.503Z,30.70
2022-08-17T16:45:23.491Z,30.00
2022-08-17T16:47:53.012Z,30.30
2022-08-17T16:50:24.036Z,29.90
2022-08-17T16:55:22.038Z,29.50
2022-08-17T17:00:21.022Z,29.60
2022-08-17T17:02:49.754Z,29.10
2022-08-17T17:06:06.476Z,28.90
2022-08-17T17:08:56.095Z,28.90
2022-08-17T17:11:41.883Z,28.30
2022-08-17T17:14:39.188Z,28.60
2022-08-17T17:17:26.247Z,28.60
2022-08-17T17:20:16.722Z,27.80
2022-08-17T17:23:11.327Z,28.40
2022-08-17T17:26:25.061Z,28.30
2022-08-17T17:31:26.106Z,27.70
2022-08-17T17:34:00.550Z,29.30
2022-08-17T17:36:41.955Z,29.10
2022-08-17T17:39:43.653Z,29.10
2022-08-17T17:42:20.155Z,28.90
2022-08-17T17:45:07.139Z,28.60
2022-08-17T17:47:36.625Z,29.60
2022-08-17T17:50:07.877Z,29.00
2022-08-17T17:52:54.386Z,29.00
2022-08-17T17:56:02.077Z,28.90
2022-08-17T17:58:50.950Z,29.10
2022-08-17T18:01:49.814Z,28.50
2022-08-17T18:04:36.848Z,28.70
2022-08-17T18:07:33.679Z,28.60
2022-08-17T18:10:30.041Z,28.10
2022-08-17T18:13:30.776Z,28.40
2022-08-17T18:16:01.059Z,28.00
2022-08-17T18:18:44.792Z,27.70
2022-08-17T18:21:22.987Z,28.10
2022-08-17T18:24:01.257Z,27.90
2022-08-17T18:26:55.567Z,27.50
2022-08-17T18:29:34.595Z,27.40
2022-08-17T18:32:16.374Z,27.40
2022-08-17T18:34:48.952Z,27.00
2022-08-17T18:37:40.169Z,27.10
2022-08-17T18:40:17.318Z,26.20
2022-08-17T18:42:46.382Z,26.30
2022-08-17T18:45:33.488Z,26.00
2022-08-17T18:48:02.536Z,26.40
2022-08-17T18:50:41.567Z,26.30
2022-08-17T18:53:35.047Z,26.20
2022-08-17T18:56:31.205Z,26.00
2022-08-17T18:59:28.743Z,26.10
2022-08-17T19:02:20.683Z,25.70
2022-08-17T19:05:25.059Z,25.20
2022-08-17T19:07:53.318Z,25.20
2022-08-17T19:10:28.321Z,25.60
2022-08-17T19:13:14.082Z,25.40
2022-08-17T19:16:05.308Z,25.20
2022-08-17T19:19:20.048Z,25.10
2022-08-17T19:22:31.033Z,25.20
2022-08-17T19:25:16.154Z,25.20
2022-08-17T19:28:21.556Z,24.90
2022-08-17T19:31:04.929Z,24.90
2022-08-17T19:36:22.445Z,25.70
2022-08-17T19:39:07.138Z,25.10
2022-08-17T19:44:32.237Z,24.70
2022-08-17T19:47:53.856Z,24.60
2022-08-17T19:54:01.588Z,24.60
2022-08-17T19:57:08.720Z,24.30
2022-08-17T20:00:01.880Z,23.60
2022-08-17T20:02:48.451Z,23.50
2022-08-17T20:06:08.787Z,23.70
2022-08-17T20:08:40.915Z,24.10
2022-08-17T20:11:35.029Z,24.10
2022-08-17T20:14:15.171Z,24.40
2022-08-17T20:19:28.369Z,24.60
2022-08-17T20:22:10.679Z,23.60
2022-08-17T20:24:55.826Z,23.80
2022-08-17T20:27:48.650Z,23.80
2022-08-17T20:30:24.225Z,23.30
2022-08-17T20:32:56.714Z,23.80
2022-08-17T20:35:34.576Z,23.30
2022-08-17T20:38:07.968Z,23.60
2022-08-17T20:40:57.463Z,23.50
2022-08-17T20:43:34.339Z,23.40
2022-08-17T20:46:36.865Z,23.30
2022-08-17T20:49:26.026Z,23.20
2022-08-17T20:54:57.182Z,22.80
2022-08-17T20:57:47.449Z,22.80
2022-08-17T21:00:30.572Z,22.30
2022-08-17T21:03:25.342Z,22.50
2022-08-17T21:06:16.938Z,22.80
2022-08-17T21:09:12.558Z,22.80
2022-08-17T21:12:02.564Z,22.70
2022-08-17T21:15:48.608Z,22.30
2022-08-17T21:18:49.570Z,22.60
2022-08-17T21:21:49.315Z,22.60
2022-08-17T21:24:46.158Z,22.60
2022-08-17T21:27:34.977Z,22.50
2022-08-17T21:32:40.507Z,22.40
2022-08-17T21:35:28.451Z,22.30
2022-08-17T21:38:03.555Z,22.30
2022-08-17T21:40:34.036Z,22.30
2022-08-17T21:43:23.348Z,22.20
2022-08-17T21:46:04.091Z,22.60
2022-08-17T21:48:45.776Z,22.20
2022-08-17T21:53:55.870Z,22.70
2022-08-17T21:56:41.397Z,21.80
2022-08-17T21:59:19.763Z,21.80
2022-08-17T22:02:00.386Z,21.30
2022-08-17T22:04:39.044Z,21.80
2022-08-17T22:07:12.672Z,21.70
2022-08-17T22:09:50.095Z,22.00
2022-08-17T22:15:04.365Z,21.60
2022-08-17T22:17:41.242Z,21.50
2022-08-17T22:20:16.869Z,21.60
2022-08-17T22:23:12.375Z,21.40
2022-08-17T22:26:05.870Z,22.00
2022-08-17T22:28:41.754Z,21.50
2022-08-17T22:31:14.716Z,21.70
2022-08-17T22:34:10.960Z,21.90
2022-08-17T22:36:41.853Z,21.80
2022-08-17T22:42:04.583Z,21.50
2022-08-17T22:44:37.693Z,21.70
2022-08-17T22:47:14.607Z,21.50
2022-08-17T22:50:24.003Z,21.40
2022-08-17T22:53:22.277Z,21.40
2022-08-17T22:56:15.019Z,21.40
2022-08-17T22:59:16.135Z,21.50
2022-08-17T23:02:11.657Z,21.50
2022-08-17T23:04:46.179Z,21.50
2022-08-17T23:12:18.874Z,21.30
2022-08-17T23:24:51.839Z,21.70
2022-08-17T23:27:22.123Z,21.70
2022-08-17T23:37:18.177Z,21.90
2022-08-17T23:42:21.847Z,21.90
2022-08-17T23:44:49.992Z,21.90
2022-08-17T23:52:16.598Z,21.80
2022-08-17T23:54:47.549Z,21.70
2022-08-17T23:57:35.093Z,21.70
